Time;durP1;ratioP1;P1;durP2;ratioP2;P2;SDS_P1;SDS_P2;PMS_P1;PMS_P2;Temp;Humidity;BMP_temperature;BMP_pressure;BME280_temperature;BME280_humidity;BME280_pressure;Samples;Min_cycle;Max_cycle;Signal;HPM_P1;HPM_P2
2021/12/20 00:01:45;;;;;;;12.77;1.45;;;7.00;99.90;;;;;;4991585;28;20510;-87
2021/12/20 00:04:11;;;;;;;10.50;1.88;;;6.80;99.90;;;;;;4975591;28;20129;-83
2021/12/20 00:06:37;;;;;;;16.48;1.08;;;7.10;99.90;;;;;;4991649;28;20054;-84
2021/12/20 00:09:04;;;;;;;8.40;1.33;;;6.50;99.90;;;;;;4991482;28;20102;-86
2021/12/20 00:11:30;;;;;;;20.75;2.95;;;6.80;99.90;;;;;;4991422;28;20052;-86
2021/12/20 00:13:55;;;;;;;18.27;1.67;;;6.50;99.90;;;;;;4991393;28;20055;-84
2021/12/20 00:16:21;;;;;;;9.70;1.13;;;7.10;99.90;;;;;;4990042;28;20422;-83
2021/12/20 00:18:47;;;;;;;9.38;1.02;;;6.40;99.90;;;;;;4990963;28;20047;-86
2021/12/20 00:21:13;;;;;;;11.13;0.95;;;6.80;99.90;;;;;;4999680;28;20063;-84
2021/12/20 00:23:39;;;;;;;7.85;1.05;;;6.10;99.90;;;;;;5067931;28;20045;-85
2021/12/20 00:26:05;;;;;;;12.80;1.20;;;6.40;99.90;;;;;;5072603;28;20052;-85
2021/12/20 00:28:30;;;;;;;11.25;1.30;;;6.40;99.90;;;;;;5072725;28;20052;-85
2021/12/20 00:30:56;;;;;;;8.68;0.90;;;6.40;99.90;;;;;;5072416;28;20097;-86
2021/12/20 00:33:22;;;;;;;7.57;0.98;;;6.60;99.90;;;;;;5071886;28;20049;-85
2021/12/20 00:35:49;;;;;;;7.47;1.00;;;6.70;99.90;;;;;;5054628;28;20056;-85
2021/12/20 00:41:00;;;;;;;12.32;1.45;;;6.40;99.90;;;;;;5072367;28;20053;-84
2021/12/20 00:43:26;;;;;;;5.63;0.70;;;6.60;99.90;;;;;;5072575;28;20044;-85
2021/12/20 00:45:52;;;;;;;13.95;1.05;;;6.90;99.90;;;;;;5054447;28;20051;-86
2021/12/20 00:48:17;;;;;;;9.82;1.30;;;6.80;99.90;;;;;;5074792;28;20048;-85
2021/12/20 00:50:44;;;;;;;10.35;1.35;;;6.90;99.90;;;;;;5076471;28;20527;-86
2021/12/20 00:53:12;;;;;;;7.18;1.00;;;6.40;99.90;;;;;;5058506;28;20048;-85
2021/12/20 00:55:38;;;;;;;13.65;1.40;;;6.40;99.90;;;;;;5076806;28;20052;-84
2021/12/20 00:58:04;;;;;;;10.93;1.95;;;6.90;99.90;;;;;;5075631;28;20048;-87
2021/12/20 01:00:34;;;;;;;4.53;0.70;;;6.70;99.90;;;;;;5076306;28;20447;-83
2021/12/20 01:03:00;;;;;;;1.95;0.50;;;7.00;99.90;;;;;;5076221;28;20136;-82
2021/12/20 01:05:27;;;;;;;5.55;0.85;;;6.70;99.90;;;;;;5076122;28;20412;-85
2021/12/20 01:07:56;;;;;;;6.22;0.93;;;6.50;99.90;;;;;;5076229;28;20056;-85
2021/12/20 01:10:22;;;;;;;5.10;0.60;;;6.30;99.90;;;;;;5075951;28;20056;-86
2021/12/20 01:12:50;;;;;;;8.40;1.08;;;7.00;99.90;;;;;;5076177;28;20048;-86
2021/12/20 01:15:24;;;;;;;10.82;0.95;;;6.20;99.90;;;;;;5076185;28;20052;-85
2021/12/20 01:17:50;;;;;;;4.50;0.60;;;6.30;99.90;;;;;;5075824;28;20493;-86
2021/12/20 01:20:16;;;;;;;12.00;2.63;;;6.30;99.90;;;;;;5058064;28;20087;-87
2021/12/20 01:22:44;;;;;;;8.07;0.63;;;6.30;99.90;;;;;;5057896;28;20059;-86
2021/12/20 01:25:10;;;;;;;7.60;0.80;;;6.50;99.90;;;;;;5075715;28;20052;-85
2021/12/20 01:27:36;;;;;;;4.47;0.75;;;6.10;99.90;;;;;;5076022;28;20105;-86
2021/12/20 01:30:03;;;;;;;6.97;0.70;;;6.10;99.90;;;;;;5075482;28;20056;-85
2021/12/20 01:32:29;;;;;;;4.65;0.50;;;6.00;99.90;;;;;;5057856;28;20405;-85
2021/12/20 01:34:55;;;;;;;5.40;0.60;;;6.50;99.90;;;;;;5075657;28;20064;-86
2021/12/20 01:37:20;;;;;;;6.07;0.63;;;6.60;99.90;;;;;;5057058;28;20095;-87
2021/12/20 01:39:46;;;;;;;7.47;1.27;;;5.80;99.90;;;;;;5057452;28;20048;-86
2021/12/20 01:42:18;;;;;;;5.93;0.75;;;6.50;99.90;;;;;;5057488;28;20056;-88
2021/12/20 01:44:44;;;;;;;4.90;0.40;;;6.20;99.90;;;;;;5057525;28;20060;-85
2021/12/20 01:47:10;;;;;;;4.90;0.40;;;5.70;99.90;;;;;;5041071;28;20058;-89
2021/12/20 01:49:44;;;;;;;3.80;0.40;;;4.60;99.90;;;;;;5075008;28;20127;-86
2021/12/20 01:52:14;;;;;;;5.93;0.73;;;5.40;99.90;;;;;;5075256;28;20141;-86
2021/12/20 01:54:40;;;;;;;2.45;0.50;;;6.20;99.90;;;;;;5057534;28;20102;-86
2021/12/20 01:57:06;;;;;;;4.90;0.50;;;5.20;99.90;;;;;;5075296;28;20088;-88
2021/12/20 01:59:31;;;;;;;4.15;0.57;;;5.50;99.90;;;;;;5074989;28;20076;-88
2021/12/20 02:01:57;;;;;;;3.28;0.85;;;5.10;99.90;;;;;;5057353;28;20055;-88
2021/12/20 02:04:23;;;;;;;4.38;0.57;;;4.90;99.90;;;;;;5075244;28;20075;-88
2021/12/20 02:06:50;;;;;;;2.85;1.17;;;5.00;99.90;;;;;;5056660;28;20132;-88
2021/12/20 02:09:19;;;;;;;1.83;0.40;;;5.50;99.90;;;;;;5040225;28;20519;-85
2021/12/20 02:11:47;;;;;;;4.47;0.68;;;5.90;99.90;;;;;;5057338;28;20140;-85
2021/12/20 02:14:13;;;;;;;1.33;0.43;;;5.50;99.90;;;;;;5075510;28;20052;-86
2021/12/20 02:16:40;;;;;;;8.73;0.70;;;4.70;99.90;;;;;;5076097;28;20051;-85
2021/12/20 02:19:09;;;;;;;9.55;0.68;;;5.40;99.90;;;;;;5079757;28;20056;-85
2021/12/20 02:21:36;;;;;;;5.70;0.60;;;4.60;99.90;;;;;;5043337;28;20052;-85
2021/12/20 02:24:03;;;;;;;6.30;0.60;;;5.00;99.90;;;;;;5074649;28;20094;-84
2021/12/20 02:26:29;;;;;;;8.40;1.10;;;4.60;99.90;;;;;;5080337;28;20417;-86
2021/12/20 02:28:58;;;;;;;2.63;0.57;;;4.90;99.90;;;;;;5081051;28;20040;-85
2021/12/20 02:37:16;;;;;;;3.53;0.50;;;4.80;99.90;;;;;;5075422;28;20048;-87
2021/12/20 02:39:42;;;;;;;3.73;0.30;;;4.60;99.90;;;;;;5074280;28;20059;-88
2021/12/20 02:42:12;;;;;;;7.32;0.88;;;4.70;99.90;;;;;;5074318;28;20044;-88
2021/12/20 02:44:45;;;;;;;4.35;0.70;;;5.20;99.90;;;;;;5056182;28;20048;-88
2021/12/20 02:47:15;;;;;;;4.70;0.45;;;4.50;99.90;;;;;;5074551;28;20052;-87
2021/12/20 02:49:43;;;;;;;2.00;0.40;;;4.40;99.90;;;;;;5074228;28;20076;-86
2021/12/20 02:52:09;;;;;;;1.40;0.30;;;4.40;99.90;;;;;;5056444;28;20083;-86
2021/12/20 02:54:36;;;;;;;6.28;0.50;;;4.40;99.90;;;;;;5073806;28;20088;-88
2021/12/20 02:57:03;;;;;;;1.70;0.40;;;4.40;99.90;;;;;;5072696;28;20443;-86
2021/12/20 02:59:29;;;;;;;4.88;0.82;;;4.30;99.90;;;;;;5055347;28;20052;-87
2021/12/20 03:02:05;;;;;;;2.83;0.50;;;4.50;99.90;;;;;;5073940;28;20044;-87
2021/12/20 03:04:31;;;;;;;3.45;0.50;;;4.30;99.90;;;;;;5070599;28;20056;-87
2021/12/20 03:07:01;;;;;;;3.70;0.50;;;4.90;99.90;;;;;;5068489;28;20052;-86
2021/12/20 03:09:31;;;;;;;3.95;0.50;;;4.70;99.90;;;;;;5039413;28;20055;-87
2021/12/20 03:11:59;;;;;;;3.15;0.60;;;4.80;99.90;;;;;;5055732;28;20052;-87
2021/12/20 03:14:34;;;;;;;5.10;1.00;;;4.50;99.90;;;;;;5073714;28;20044;-87
2021/12/20 03:17:00;;;;;;;4.15;0.65;;;4.70;99.90;;;;;;5073564;28;20049;-88
2021/12/20 03:19:26;;;;;;;3.17;0.60;;;4.70;99.90;;;;;;5055709;28;20052;-86
2021/12/20 03:21:52;;;;;;;3.80;0.47;;;4.10;99.90;;;;;;5073635;28;20092;-87
2021/12/20 03:24:18;;;;;;;2.67;0.40;;;5.30;99.90;;;;;;5073652;28;20123;-87
2021/12/20 03:26:44;;;;;;;3.92;0.63;;;4.00;99.90;;;;;;5055752;28;20565;-87
2021/12/20 03:29:10;;;;;;;5.25;0.55;;;4.00;99.90;;;;;;5073695;28;20102;-85
2021/12/20 03:31:36;;;;;;;3.30;0.50;;;4.20;99.90;;;;;;5055980;28;20049;-86
2021/12/20 03:34:03;;;;;;;6.03;0.52;;;3.30;99.90;;;;;;5073586;28;20048;-86
2021/12/20 03:36:28;;;;;;;5.63;0.50;;;4.90;99.90;;;;;;5055398;28;20052;-87
2021/12/20 03:38:55;;;;;;;1.83;0.50;;;4.60;99.90;;;;;;5072704;28;20202;-84
2021/12/20 03:41:21;;;;;;;4.18;0.38;;;3.80;99.90;;;;;;5055210;28;20567;-86
2021/12/20 03:43:47;;;;;;;0.95;0.40;;;4.20;99.90;;;;;;5073413;28;20127;-86
2021/12/20 03:46:13;;;;;;;3.50;0.43;;;3.90;99.90;;;;;;5073314;28;20190;-85
2021/12/20 03:48:39;;;;;;;0.77;0.30;;;4.00;99.90;;;;;;5055411;28;20145;-85
2021/12/20 03:51:06;;;;;;;5.97;0.95;;;3.90;99.90;;;;;;5073309;28;20507;-86
2021/12/20 03:53:33;;;;;;;2.15;0.35;;;4.50;99.90;;;;;;5069850;28;20045;-87
2021/12/20 03:56:00;;;;;;;3.13;0.40;;;4.20;99.90;;;;;;5053003;28;20061;-86
2021/12/20 03:58:27;;;;;;;4.50;0.50;;;3.50;99.90;;;;;;5035348;28;20071;-86
2021/12/20 04:00:57;;;;;;;2.65;0.45;;;4.20;99.90;;;;;;5064903;28;20061;-84
2021/12/20 04:03:25;;;;;;;7.68;0.80;;;3.90;99.90;;;;;;5072473;28;20094;-85
2021/12/20 04:05:51;;;;;;;5.97;0.60;;;3.30;99.90;;;;;;5073004;28;20060;-85
2021/12/20 04:08:17;;;;;;;4.93;0.63;;;3.30;99.90;;;;;;5054865;28;20139;-84
2021/12/20 04:10:43;;;;;;;2.63;0.63;;;3.80;99.90;;;;;;5054815;28;20103;-85
2021/12/20 04:13:09;;;;;;;3.10;0.50;;;3.60;99.90;;;;;;5072951;28;20079;-84
2021/12/20 04:15:36;;;;;;;2.58;0.55;;;4.00;99.90;;;;;;5054803;28;20492;-83
2021/12/20 04:18:03;;;;;;;4.13;0.43;;;2.00;99.90;;;;;;5072698;28;20047;-84
2021/12/20 04:20:28;;;;;;;3.50;0.50;;;3.00;99.90;;;;;;5072732;28;20052;-84
2021/12/20 04:22:54;;;;;;;5.32;0.50;;;2.90;99.90;;;;;;5054814;28;20048;-83
2021/12/20 04:25:20;;;;;;;3.20;0.47;;;3.40;99.90;;;;;;5054952;28;20052;-84
2021/12/20 04:31:28;;;;;;;2.78;0.40;;;2.80;99.90;;;;;;5072740;28;20405;-86
2021/12/20 04:33:53;;;;;;;5.00;0.90;;;3.20;99.90;;;;;;5053740;28;20465;-84
2021/12/20 04:36:19;;;;;;;3.08;0.60;;;3.30;99.90;;;;;;5072791;28;20125;-86
2021/12/20 04:38:45;;;;;;;3.58;0.77;;;2.80;99.90;;;;;;5053656;28;20048;-86
2021/12/20 04:41:11;;;;;;;4.55;0.52;;;2.70;99.90;;;;;;5054867;28;20053;-86
2021/12/20 04:43:37;;;;;;;1.35;0.57;;;2.70;99.90;;;;;;5072771;28;20055;-85
2021/12/20 04:46:02;;;;;;;3.50;0.70;;;2.70;99.90;;;;;;5072048;28;20127;-85
2021/12/20 04:48:28;;;;;;;6.28;0.68;;;2.60;99.90;;;;;;5072254;28;20055;-86
2021/12/20 04:50:54;;;;;;;3.33;0.85;;;3.00;99.90;;;;;;5072395;28;20111;-83
2021/12/20 04:53:20;;;;;;;4.18;0.70;;;2.50;99.90;;;;;;5054637;28;20055;-85
2021/12/20 04:55:45;;;;;;;4.78;0.63;;;2.80;99.90;;;;;;5054608;28;20083;-85
2021/12/20 04:58:12;;;;;;;3.03;0.60;;;2.40;99.90;;;;;;5072453;28;20044;-83
2021/12/20 05:00:40;;;;;;;2.67;0.60;;;2.70;99.90;;;;;;5054509;28;20063;-86
2021/12/20 05:03:06;;;;;;;0.57;0.30;;;2.30;99.90;;;;;;5054332;28;20110;-85
2021/12/20 05:05:32;;;;;;;7.38;0.90;;;2.20;99.90;;;;;;5054577;28;20060;-85
2021/12/20 05:07:58;;;;;;;4.22;0.55;;;2.20;99.90;;;;;;5054842;28;20056;-84
2021/12/20 05:10:26;;;;;;;3.53;0.50;;;2.50;99.90;;;;;;5072289;28;20489;-85
2021/12/20 05:12:54;;;;;;;3.65;0.60;;;2.00;99.90;;;;;;5053310;28;20049;-86
2021/12/20 05:15:20;;;;;;;5.20;0.40;;;2.60;99.90;;;;;;5072598;28;20142;-87
2021/12/20 05:17:46;;;;;;;8.63;0.50;;;2.40;99.90;;;;;;5071786;28;20094;-85
2021/12/20 05:20:12;;;;;;;1.92;0.40;;;1.90;99.90;;;;;;5072070;28;20060;-86
2021/12/20 05:22:38;;;;;;;5.05;0.60;;;1.90;99.90;;;;;;5072459;28;20051;-86
2021/12/20 05:25:04;;;;;;;1.75;0.40;;;1.80;99.90;;;;;;5072279;28;20416;-87
2021/12/20 05:27:30;;;;;;;3.53;0.50;;;1.80;99.90;;;;;;5054311;28;20057;-86
2021/12/20 05:29:55;;;;;;;4.70;0.68;;;1.80;99.90;;;;;;5054208;28;20139;-86
2021/12/20 05:32:21;;;;;;;2.75;0.60;;;1.70;99.90;;;;;;5054158;28;20059;-87
2021/12/20 05:34:47;;;;;;;2.65;0.60;;;1.70;99.90;;;;;;5073580;28;20049;-89
2021/12/20 05:37:13;;;;;;;4.70;0.70;;;1.60;99.90;;;;;;5075983;28;20048;-86
2021/12/20 05:39:40;;;;;;;2.85;0.40;;;1.60;99.90;;;;;;5075838;28;20144;-85
2021/12/20 05:42:06;;;;;;;4.57;0.82;;;1.60;99.90;;;;;;5075912;28;20049;-85
2021/12/20 05:44:32;;;;;;;4.38;0.88;;;1.70;99.90;;;;;;5057644;28;20052;-87
2021/12/20 05:46:58;;;;;;;3.97;0.75;;;1.90;99.90;;;;;;5074471;28;20066;-86
2021/12/20 05:49:24;;;;;;;1.65;0.68;;;1.50;99.90;;;;;;5075103;28;20098;-87
2021/12/20 05:51:49;;;;;;;3.50;0.80;;;1.40;99.90;;;;;;5075515;28;20094;-87
2021/12/20 05:54:15;;;;;;;3.10;0.50;;;1.40;99.90;;;;;;5075390;28;20156;-86
2021/12/20 05:56:41;;;;;;;1.38;0.30;;;1.80;99.90;;;;;;5075406;28;20052;-85
2021/12/20 05:59:07;;;;;;;1.75;0.40;;;1.30;99.90;;;;;;5075663;28;20106;-86
2021/12/20 06:01:32;;;;;;;3.35;0.40;;;1.30;99.90;;;;;;5075344;28;20416;-85
2021/12/20 06:03:58;;;;;;;1.25;0.40;;;1.20;99.90;;;;;;5075605;28;20083;-87
2021/12/20 06:06:27;;;;;;;2.40;0.50;;;1.20;99.90;;;;;;5057761;28;20048;-85
2021/12/20 06:08:53;;;;;;;1.67;0.40;;;1.40;99.90;;;;;;5057451;28;20076;-86
2021/12/20 06:11:19;;;;;;;2.97;0.40;;;1.20;99.90;;;;;;5076233;28;20052;-85
2021/12/20 06:13:45;;;;;;;2.08;0.50;;;1.70;99.90;;;;;;5074857;28;20048;-86
2021/12/20 06:16:13;;;;;;;4.63;0.70;;;1.10;99.90;;;;;;5075644;28;20059;-86
2021/12/20 06:18:41;;;;;;;2.28;0.60;;;1.10;99.90;;;;;;5076353;28;20110;-86
2021/12/20 06:21:07;;;;;;;3.35;0.68;;;1.10;99.90;;;;;;5076814;28;20429;-86
2021/12/20 06:23:33;;;;;;;2.60;0.50;;;1.10;99.90;;;;;;5056525;28;20061;-85
2021/12/20 06:25:59;;;;;;;3.53;0.60;;;1.10;99.90;;;;;;5056865;28;20049;-85
2021/12/20 06:28:25;;;;;;;2.42;0.60;;;1.00;99.90;;;;;;5074814;28;20055;-88
2021/12/20 06:30:50;;;;;;;6.30;1.00;;;1.80;99.90;;;;;;5074888;28;20110;-88
2021/12/20 06:33:16;;;;;;;6.68;0.70;;;1.10;99.90;;;;;;5056444;28;20485;-86
2021/12/20 06:35:42;;;;;;;2.70;0.80;;;1.00;99.90;;;;;;5074373;28;20045;-87
2021/12/20 06:38:10;;;;;;;3.13;0.60;;;1.80;99.90;;;;;;5056514;28;20063;-85
2021/12/20 06:40:37;;;;;;;4.43;1.35;;;1.60;99.90;;;;;;5056491;28;20135;-85
2021/12/20 06:43:04;;;;;;;2.75;0.63;;;0.90;99.90;;;;;;5074488;28;20109;-84
2021/12/20 06:45:30;;;;;;;2.78;0.80;;;0.90;99.90;;;;;;5073302;28;20044;-86
2021/12/20 06:47:56;;;;;;;4.78;1.00;;;0.40;99.90;;;;;;5056173;28;20048;-84
2021/12/20 06:50:23;;;;;;;3.30;0.80;;;0.80;99.90;;;;;;5073895;28;20063;-87
2021/12/20 06:52:49;;;;;;;1.45;0.60;;;1.30;99.90;;;;;;5074279;28;20060;-84
2021/12/20 06:55:14;;;;;;;4.03;0.90;;;0.80;99.90;;;;;;5056038;28;20059;-85
2021/12/20 06:57:40;;;;;;;3.83;0.88;;;0.80;99.90;;;;;;5073904;28;20084;-83
2021/12/20 07:00:07;;;;;;;3.50;1.23;;;1.00;99.90;;;;;;5074196;28;20048;-87
2021/12/20 07:02:33;;;;;;;1.30;0.63;;;0.80;99.90;;;;;;5073986;28;20124;-87
2021/12/20 07:04:58;;;;;;;2.55;0.63;;;0.80;99.90;;;;;;5073995;28;20087;-86
2021/12/20 07:07:24;;;;;;;6.95;1.17;;;1.50;99.90;;;;;;5074089;28;20044;-85
2021/12/20 07:09:50;;;;;;;4.97;0.80;;;0.70;99.90;;;;;;5056117;28;20053;-86
2021/12/20 07:12:15;;;;;;;5.95;1.02;;;0.70;99.90;;;;;;5073991;28;20499;-87
2021/12/20 07:14:42;;;;;;;4.70;0.80;;;1.60;99.90;;;;;;5055895;28;20088;-86
2021/12/20 07:17:08;;;;;;;4.25;0.80;;;1.40;99.90;;;;;;5055964;28;20493;-87
2021/12/20 07:19:34;;;;;;;4.30;0.80;;;0.90;99.90;;;;;;5073570;28;20083;-89
2021/12/20 07:21:59;;;;;;;3.65;0.73;;;1.20;99.90;;;;;;5073685;28;20871;-88
2021/12/20 07:24:25;;;;;;;1.80;0.60;;;0.60;99.90;;;;;;5058274;28;20045;-88
2021/12/20 07:26:51;;;;;;;1.70;0.70;;;0.60;99.90;;;;;;5039945;28;20051;-91
2021/12/20 07:29:17;;;;;;;2.17;0.65;;;0.60;99.90;;;;;;5056472;28;20040;-89
2021/12/20 07:31:44;;;;;;;4.88;0.60;;;0.50;99.90;;;;;;5073108;28;20079;-88
2021/12/20 07:34:10;;;;;;;2.05;0.73;;;1.00;99.90;;;;;;5073399;28;20049;-85
2021/12/20 07:36:37;;;;;;;5.35;0.80;;;1.60;99.90;;;;;;5055338;28;20045;-89
2021/12/20 07:39:05;;;;;;;2.95;0.90;;;0.40;99.90;;;;;;5073002;28;20059;-84
2021/12/20 07:41:30;;;;;;;2.50;0.90;;;1.20;99.90;;;;;;5055390;28;20111;-83
2021/12/20 07:43:59;;;;;;;3.15;0.60;;;1.20;99.90;;;;;;5054544;28;20044;-84
2021/12/20 07:46:25;;;;;;;4.95;1.00;;;0.90;99.90;;;;;;5055453;28;20063;-83
2021/12/20 07:48:51;;;;;;;3.58;0.98;;;2.00;99.90;;;;;;5054815;28;20083;-85
2021/12/20 07:51:17;;;;;;;4.13;0.60;;;0.30;99.90;;;;;;5055240;28;20068;-86
2021/12/20 07:53:44;;;;;;;5.47;0.60;;;0.30;99.90;;;;;;5054869;28;20514;-87
2021/12/20 07:56:12;;;;;;;4.53;0.70;;;0.30;99.90;;;;;;5073889;28;20048;-83
2021/12/20 07:58:38;;;;;;;4.78;0.70;;;0.30;99.90;;;;;;5073065;28;20410;-85
2021/12/20 08:01:04;;;;;;;1.92;0.57;;;0.70;99.90;;;;;;5054821;28;20048;-81
2021/12/20 08:03:30;;;;;;;3.50;1.02;;;0.30;99.90;;;;;;5072990;28;20049;-82
2021/12/20 08:05:56;;;;;;;2.55;1.05;;;1.30;99.90;;;;;;5072818;28;20048;-82
2021/12/20 08:08:22;;;;;;;1.95;0.70;;;0.50;99.90;;;;;;5073033;28;20037;-82
2021/12/20 08:10:48;;;;;;;4.07;0.73;;;0.30;99.90;;;;;;5055007;28;20063;-82
2021/12/20 08:13:15;;;;;;;3.03;1.08;;;0.30;99.90;;;;;;5072908;28;20055;-82
2021/12/20 08:15:42;;;;;;;4.15;0.70;;;0.30;99.90;;;;;;5054904;28;20173;-82
2021/12/20 08:18:08;;;;;;;2.95;0.70;;;0.90;99.90;;;;;;5072680;28;20055;-85
2021/12/20 08:20:34;;;;;;;1.52;0.65;;;0.30;99.90;;;;;;5039111;28;20408;-86
2021/12/20 08:23:01;;;;;;;2.05;0.90;;;-0.30;99.90;;;;;;5040086;28;20057;-85
2021/12/20 08:25:27;;;;;;;1.65;0.50;;;0.30;99.90;;;;;;5054035;28;20131;-87
2021/12/20 08:27:53;;;;;;;0.80;0.60;;;0.90;99.90;;;;;;5054823;28;20144;-84
2021/12/20 08:30:21;;;;;;;0.80;0.50;;;1.00;99.90;;;;;;5072790;28;20059;-86
2021/12/20 08:32:47;;;;;;;1.50;0.52;;;0.30;99.90;;;;;;5054710;28;20045;-87
2021/12/20 08:35:14;;;;;;;2.40;0.52;;;0.40;99.90;;;;;;5053946;28;20121;-85
2021/12/20 08:37:40;;;;;;;1.52;0.50;;;0.40;99.90;;;;;;5055687;28;20108;-86
2021/12/20 08:40:10;;;;;;;2.15;0.43;;;0.40;99.90;;;;;;5074981;28;20059;-88
2021/12/20 08:42:36;;;;;;;3.88;0.60;;;0.40;99.90;;;;;;5073500;28;20067;-87
2021/12/20 08:45:04;;;;;;;3.08;0.88;;;0.40;99.90;;;;;;5072537;28;20123;-85
2021/12/20 08:47:32;;;;;;;0.63;0.40;;;0.50;99.90;;;;;;5073031;28;20049;-86
2021/12/20 08:50:00;;;;;;;2.33;0.50;;;1.50;99.90;;;;;;5072264;28;20412;-86
2021/12/20 08:52:27;;;;;;;5.07;0.50;;;0.50;99.90;;;;;;5072632;28;20072;-88
2021/12/20 08:54:52;;;;;;;2.15;0.38;;;0.60;99.90;;;;;;5072172;28;20086;-87
2021/12/20 08:57:18;;;;;;;1.35;0.38;;;0.60;99.90;;;;;;5054864;28;20052;-87
2021/12/20 08:59:44;;;;;;;1.00;0.50;;;0.70;99.90;;;;;;5072631;28;20131;-88
2021/12/20 09:02:10;;;;;;;3.13;0.52;;;0.70;99.90;;;;;;5072547;28;20053;-87
2021/12/20 09:04:36;;;;;;;4.38;0.60;;;0.70;99.90;;;;;;5074403;28;20105;-82
2021/12/20 09:07:04;;;;;;;0.82;0.50;;;0.80;99.90;;;;;;5054411;28;20057;-84
2021/12/20 09:09:35;;;;;;;2.45;0.70;;;0.80;99.90;;;;;;5058187;28;20520;-86
2021/12/20 09:12:02;;;;;;;1.45;0.70;;;0.90;99.90;;;;;;5067633;28;20041;-85
2021/12/20 09:14:28;;;;;;;1.58;0.55;;;0.90;99.90;;;;;;5076070;28;20048;-84
2021/12/20 09:16:54;;;;;;;2.97;0.50;;;0.90;99.90;;;;;;5075760;28;20080;-83
2021/12/20 09:19:20;;;;;;;2.85;0.70;;;1.00;99.90;;;;;;5075823;28;20091;-88
2021/12/20 09:21:48;;;;;;;2.70;0.40;;;1.70;99.90;;;;;;5076325;28;20047;-89
2021/12/20 09:24:14;;;;;;;1.38;0.43;;;1.10;99.90;;;;;;5076508;28;20063;-88
2021/12/20 09:26:39;;;;;;;1.55;0.35;;;1.10;99.90;;;;;;5076327;28;20041;-88
2021/12/20 09:29:05;;;;;;;1.05;0.50;;;1.20;99.90;;;;;;5076153;28;20060;-88
2021/12/20 09:31:31;;;;;;;1.52;0.40;;;1.20;99.90;;;;;;5075761;28;20095;-89
2021/12/20 09:33:58;;;;;;;3.28;0.45;;;1.20;99.90;;;;;;5058129;28;20045;-85
2021/12/20 09:36:29;;;;;;;3.47;0.70;;;1.30;99.90;;;;;;5075470;28;20066;-88
2021/12/20 09:38:56;;;;;;;2.30;0.50;;;1.30;99.90;;;;;;5075486;28;20052;-88
2021/12/20 09:42:00;;;;;;;4.15;0.93;;;1.40;99.90;;;;;;5075746;28;20054;-89
2021/12/20 09:44:10;;;;;;;0.85;0.40;;;1.40;99.90;;;;;;5073714;28;20072;-88
2021/12/20 09:46:36;;;;;;;2.83;0.70;;;1.50;99.90;;;;;;5057913;28;20061;-87
2021/12/20 09:49:04;;;;;;;2.28;0.40;;;1.50;99.90;;;;;;5057494;28;20049;-86
2021/12/20 09:51:30;;;;;;;5.20;0.47;;;1.60;99.90;;;;;;5075371;28;20493;-89
2021/12/20 09:53:55;;;;;;;2.83;0.60;;;1.60;99.90;;;;;;5075469;28;20052;-88
2021/12/20 09:56:24;;;;;;;1.00;0.60;;;1.70;99.90;;;;;;5058021;28;20064;-87
2021/12/20 09:58:53;;;;;;;2.17;0.60;;;1.90;99.90;;;;;;5061490;28;20079;-85
2021/12/20 10:01:20;;;;;;;1.58;0.40;;;1.80;99.90;;;;;;5069496;28;20060;-83
2021/12/20 10:03:47;;;;;;;2.65;0.50;;;1.90;99.90;;;;;;5083526;28;20080;-87
2021/12/20 10:06:13;;;;;;;1.30;0.50;;;1.90;99.90;;;;;;5077033;28;20045;-91
2021/12/20 10:08:49;;;;;;;1.10;0.60;;;2.00;99.90;;;;;;5070147;28;20079;-86
2021/12/20 10:11:22;;;;;;;;;;;2.10;99.90;;;;;;5087331;28;20051;-85
2021/12/20 10:13:48;;;;;;;1.92;0.40;;;2.20;99.90;;;;;;5062652;28;19960;-90
2021/12/20 10:16:20;;;;;;;3.40;0.77;;;2.30;99.90;;;;;;5058935;28;20049;-93
2021/12/20 10:18:47;;;;;;;1.27;0.30;;;2.40;99.90;;;;;;5067042;28;20055;-89
2021/12/20 10:21:13;;;;;;;5.82;0.63;;;2.50;99.90;;;;;;5076539;28;20052;-87
2021/12/20 10:23:48;;;;;;;2.92;0.47;;;3.00;99.90;;;;;;5075572;28;20401;-86
2021/12/20 10:26:19;;;;;;;2.17;0.50;;;2.70;99.90;;;;;;5076862;28;20055;-87
2021/12/20 10:32:40;;;;;;;4.53;1.38;;;2.90;99.90;;;;;;5075144;28;20098;-84
2021/12/20 10:35:27;;;;;;;7.07;1.30;;;3.10;99.90;;;;;;5075095;28;20048;-85
2021/12/20 10:37:55;;;;;;;0.98;0.70;;;3.10;99.90;;;;;;5074954;28;20121;-86
2021/12/20 10:40:21;;;;;;;2.83;0.77;;;3.70;99.90;;;;;;5040391;28;20133;-83
2021/12/20 10:42:49;;;;;;;4.00;0.55;;;3.20;99.90;;;;;;5070269;28;20504;-84
2021/12/20 10:45:19;;;;;;;3.78;0.77;;;3.30;99.90;;;;;;5057784;28;20489;-91
2021/12/20 10:47:50;;;;;;;2.13;0.65;;;3.30;99.90;;;;;;5070954;28;20120;-88
2021/12/20 10:50:40;;;;;;;2.60;0.50;;;3.40;99.90;;;;;;5074455;28;20052;-87
2021/12/20 10:53:20;;;;;;;6.82;0.77;;;3.50;99.90;;;;;;5058990;28;20114;-86
2021/12/20 10:55:50;;;;;;;1.80;0.63;;;3.50;99.90;;;;;;5036504;28;20041;-82
2021/12/20 10:58:34;;;;;;;2.17;0.50;;;4.30;99.90;;;;;;5054534;28;20045;-94
2021/12/20 11:04:12;;;;;;;3.92;0.60;;;3.80;99.90;;;;;;5060501;28;20087;-84
2021/12/20 11:09:19;;;;;;;1.65;0.50;;;4.00;99.90;;;;;;5074197;28;20060;-82
2021/12/20 11:11:46;;;;;;;2.80;0.80;;;4.00;99.90;;;;;;5074575;28;20057;-88
2021/12/20 11:14:12;;;;;;;2.97;0.75;;;4.10;99.90;;;;;;5074105;28;20349;-81
2021/12/20 11:16:41;;;;;;;3.53;0.73;;;4.20;99.90;;;;;;5073909;28;20466;-82
2021/12/20 11:19:32;;;;;;;6.72;0.80;;;4.20;99.90;;;;;;5073841;28;20064;-82
2021/12/20 11:22:04;;;;;;;1.77;0.60;;;4.40;99.90;;;;;;5074200;28;20048;-84
2021/12/20 11:24:38;;;;;;;4.32;0.60;;;4.50;99.90;;;;;;5074278;28;20084;-92
2021/12/20 11:27:10;;;;;;;5.63;0.82;;;4.60;99.90;;;;;;5074285;28;20088;-91
2021/12/20 11:29:37;;;;;;;6.53;0.80;;;4.70;99.90;;;;;;5047345;28;20057;-90
2021/12/20 11:32:05;;;;;;;2.63;0.70;;;5.20;99.90;;;;;;5053354;28;20076;-91
2021/12/20 11:34:31;;;;;;;6.43;1.27;;;4.90;99.90;;;;;;5053576;28;20504;-91
2021/12/20 11:36:58;;;;;;;2.72;0.60;;;5.10;99.90;;;;;;5074694;28;20051;-90
2021/12/20 11:39:25;;;;;;;2.78;0.43;;;5.50;99.90;;;;;;5072967;28;20075;-88
2021/12/20 11:41:51;;;;;;;5.63;0.88;;;5.00;99.90;;;;;;5073842;28;20063;-86
2021/12/20 11:44:20;;;;;;;5.78;0.82;;;5.00;99.90;;;;;;5071964;28;20049;-92
2021/12/20 11:46:59;;;;;;;3.20;0.68;;;5.00;99.90;;;;;;5054325;28;20489;-90
2021/12/20 11:49:26;;;;;;;4.35;0.80;;;5.00;99.90;;;;;;5036635;28;20049;-92
2021/12/20 11:52:01;;;;;;;5.20;0.60;;;5.10;99.90;;;;;;5054301;28;20049;-93
2021/12/20 11:54:47;;;;;;;4.18;0.80;;;5.60;99.90;;;;;;5066450;28;20502;-87
2021/12/20 11:57:28;;;;;;;6.45;0.70;;;5.20;99.90;;;;;;5055613;28;20090;-89
2021/12/20 11:59:56;;;;;;;5.18;0.80;;;5.50;99.90;;;;;;5072041;28;20495;-89
2021/12/20 12:02:26;;;;;;;4.53;0.60;;;5.60;99.90;;;;;;5061961;28;20087;-91
2021/12/20 12:04:59;;;;;;;4.25;0.60;;;5.30;99.90;;;;;;5073354;28;20052;-91
2021/12/20 12:07:30;;;;;;;4.22;0.80;;;5.30;99.90;;;;;;5073426;28;20053;-90
2021/12/20 12:10:17;;;;;;;4.00;1.00;;;5.40;99.90;;;;;;5073320;28;20531;-88
2021/12/20 12:12:45;;;;;;;2.45;0.60;;;5.40;99.90;;;;;;5073829;28;20063;-84
2021/12/20 12:15:28;;;;;;;6.75;0.77;;;5.50;99.90;;;;;;5061665;28;20072;-83
2021/12/20 12:18:04;;;;;;;5.65;0.95;;;6.10;99.90;;;;;;5042915;28;20040;-93
2021/12/20 12:20:53;;;;;;;3.75;0.80;;;5.60;99.90;;;;;;5046827;28;20061;-89
2021/12/20 12:23:23;;;;;;;4.20;0.80;;;5.60;99.90;;;;;;5055815;28;20057;-91
2021/12/20 12:25:55;;;;;;;5.75;0.90;;;5.90;99.90;;;;;;5053782;28;20453;-89
2021/12/20 12:28:24;;;;;;;3.13;0.60;;;5.70;99.90;;;;;;5053947;28;20520;-89
2021/12/20 12:31:03;;;;;;;2.50;0.70;;;5.90;99.90;;;;;;5053291;28;20055;-89
2021/12/20 12:33:33;;;;;;;1.88;0.52;;;5.90;99.90;;;;;;5053301;28;20623;-90
2021/12/20 12:36:03;;;;;;;4.70;1.40;;;5.70;99.90;;;;;;5054532;28;20052;-90
2021/12/20 12:39:01;;;;;;;3.15;0.50;;;6.10;99.90;;;;;;5055854;28;20137;-89
2021/12/20 12:41:31;;;;;;;5.22;0.70;;;5.60;99.90;;;;;;4992855;28;20533;-89
2021/12/20 12:43:58;;;;;;;4.13;0.60;;;5.70;99.90;;;;;;4993306;28;20050;-89
2021/12/20 12:46:36;;;;;;;3.55;0.65;;;6.00;99.90;;;;;;4965508;28;20066;-88
2021/12/20 12:49:23;;;;;;;2.10;0.40;;;5.50;99.90;;;;;;4988258;28;20454;-89
2021/12/20 12:51:59;;;;;;;2.40;0.47;;;5.50;99.90;;;;;;4976046;28;20438;-89
2021/12/20 12:54:44;;;;;;;4.53;0.70;;;5.80;99.90;;;;;;4975779;28;20066;-89
2021/12/20 12:57:09;;;;;;;2.42;0.45;;;5.40;99.90;;;;;;4975717;28;20587;-91
2021/12/20 12:59:58;;;;;;;3.33;0.50;;;5.40;99.90;;;;;;4975365;28;20082;-88
2021/12/20 13:02:30;;;;;;;3.83;0.60;;;6.00;99.90;;;;;;4941274;29;20051;-89
2021/12/20 13:05:16;;;;;;;2.05;0.50;;;5.50;99.90;;;;;;4956594;29;20122;-87
2021/12/20 13:07:45;;;;;;;3.40;0.73;;;5.30;99.90;;;;;;4956247;28;20058;-90
2021/12/20 13:10:18;;;;;;;3.08;0.60;;;5.30;99.90;;;;;;4956660;29;20047;-78
2021/12/20 13:15:33;;;;;;;3.22;0.52;;;5.30;99.90;;;;;;4956254;29;20059;-84
2021/12/20 13:18:08;;;;;;;2.72;0.50;;;5.20;99.90;;;;;;4990513;28;20451;-83
2021/12/20 13:20:56;;;;;;;2.10;0.50;;;5.20;99.90;;;;;;4994561;28;20452;-88
2021/12/20 13:23:26;;;;;;;4.63;1.20;;;5.20;99.90;;;;;;4994914;28;20081;-86
2021/12/20 13:25:58;;;;;;;4.55;0.50;;;5.20;99.90;;;;;;4994998;28;20197;-87
2021/12/20 13:28:30;;;;;;;4.30;0.60;;;5.10;99.90;;;;;;4994793;28;20054;-89